createdAt,value
2022-10-19T00:00:42.650Z,12.37
2022-10-19T00:01:45.548Z,12.51
2022-10-19T00:02:48.349Z,12.56
2022-10-19T00:03:53.986Z,12.57
2022-10-19T00:04:56.855Z,12.59
2022-10-19T00:05:59.974Z,12.57
2022-10-19T00:07:02.757Z,12.59
2022-10-19T00:08:06.409Z,12.65
2022-10-19T00:09:12.170Z,12.61
2022-10-19T00:10:14.889Z,12.60
2022-10-19T00:11:17.531Z,12.62
2022-10-19T00:12:20.133Z,12.63
2022-10-19T00:13:22.806Z,12.63
2022-10-19T00:14:26.375Z,12.66
2022-10-19T00:15:29.129Z,12.70
2022-10-19T00:16:34.983Z,12.79
2022-10-19T00:17:37.737Z,12.75
2022-10-19T00:18:43.569Z,12.79
2022-10-19T00:19:55.274Z,12.81
2022-10-19T00:21:09.140Z,12.79
2022-10-19T00:22:13.917Z,12.82
2022-10-19T00:23:17.095Z,12.95
2022-10-19T00:24:20.331Z,12.91
2022-10-19T00:25:23.133Z,12.96
2022-10-19T00:26:26.246Z,12.85
2022-10-19T00:27:28.975Z,12.82
2022-10-19T00:28:34.987Z,12.71
2022-10-19T00:29:39.026Z,12.72
2022-10-19T00:30:41.899Z,12.64
2022-10-19T00:31:44.781Z,12.74
2022-10-19T00:32:47.574Z,12.62
2022-10-19T00:33:50.673Z,12.56
2022-10-19T00:34:53.493Z,12.53
2022-10-19T00:35:56.332Z,12.53
2022-10-19T00:36:59.180Z,12.57
2022-10-19T00:38:02.052Z,12.58
2022-10-19T00:39:07.776Z,12.61
2022-10-19T00:40:10.892Z,12.72
2022-10-19T00:41:18.024Z,12.68
2022-10-19T00:42:20.932Z,12.71
2022-10-19T00:43:26.773Z,12.74
2022-10-19T00:44:29.660Z,12.74
2022-10-19T00:45:32.533Z,12.79
2022-10-19T00:46:38.410Z,12.80
2022-10-19T00:47:42.491Z,12.84
2022-10-19T00:48:45.862Z,12.91
2022-10-19T00:49:48.813Z,12.98
2022-10-19T00:50:54.498Z,13.02
2022-10-19T00:52:06.048Z,13.03
2022-10-19T00:53:09.020Z,13.05
2022-10-19T00:54:12.784Z,13.06
2022-10-19T00:55:15.653Z,13.04
2022-10-19T00:56:20.293Z,13.10
2022-10-19T00:57:23.493Z,13.06
2022-10-19T00:58:30.135Z,13.12
2022-10-19T00:59:34.060Z,13.19
2022-10-19T01:00:37.613Z,13.11
2022-10-19T01:01:41.093Z,13.07
2022-10-19T01:02:43.929Z,13.06
2022-10-19T01:03:47.223Z,13.19
2022-10-19T01:04:52.532Z,13.16
2022-10-19T01:05:56.012Z,13.12
2022-10-19T01:07:00.572Z,13.21
2022-10-19T01:08:07.353Z,13.13
2022-10-19T01:09:10.212Z,13.15
2022-10-19T01:10:13.530Z,13.22
2022-10-19T01:11:50.175Z,13.16
2022-10-19T01:13:15.016Z,13.13
2022-10-19T01:14:52.172Z,13.22
2022-10-19T01:16:17.914Z,13.23
2022-10-19T01:17:38.139Z,13.26
2022-10-19T01:18:50.173Z,13.28
2022-10-19T01:20:05.536Z,13.31
2022-10-19T01:21:22.493Z,13.24
2022-10-19T01:23:02.662Z,13.23
2022-10-19T01:24:23.858Z,13.33
2022-10-19T01:25:44.815Z,13.38
2022-10-19T01:27:43.375Z,13.28
2022-10-19T01:29:04.127Z,13.34
2022-10-19T01:30:27.219Z,13.18
2022-10-19T01:31:38.635Z,13.21
2022-10-19T01:32:55.890Z,13.28
2022-10-19T01:34:15.856Z,13.32
2022-10-19T01:35:39.491Z,13.37
2022-10-19T01:37:00.651Z,13.37
2022-10-19T01:38:14.853Z,13.35
2022-10-19T01:39:36.112Z,13.33
2022-10-19T01:40:52.306Z,13.42
2022-10-19T01:42:12.192Z,13.49
2022-10-19T01:43:24.167Z,13.44
2022-10-19T01:44:36.216Z,13.46
2022-10-19T01:45:41.253Z,13.40
2022-10-19T01:46:57.761Z,13.46
2022-10-19T01:48:15.921Z,13.46
2022-10-19T01:49:43.374Z,13.43
2022-10-19T01:50:48.792Z,13.41
2022-10-19T01:52:00.888Z,13.45
2022-10-19T01:53:06.830Z,13.43
2022-10-19T01:54:14.582Z,13.47
2022-10-19T01:55:19.621Z,13.42
2022-10-19T01:56:27.827Z,13.44
2022-10-19T01:57:43.117Z,13.45
2022-10-19T01:58:47.124Z,13.48
2022-10-19T01:59:50.704Z,13.42
2022-10-19T02:00:56.885Z,13.36
2022-10-19T02:02:00.726Z,13.32
2022-10-19T02:03:06.286Z,13.35
2022-10-19T02:04:11.848Z,13.34
2022-10-19T02:05:17.469Z,13.36
2022-10-19T02:06:21.250Z,13.40
2022-10-19T02:07:25.719Z,13.28
2022-10-19T02:08:38.255Z,13.37
2022-10-19T02:09:41.062Z,13.34
2022-10-19T02:10:45.523Z,13.32
2022-10-19T02:11:56.141Z,13.30
2022-10-19T02:13:03.050Z,13.32
2022-10-19T02:14:13.217Z,13.23
2022-10-19T02:15:20.296Z,13.11
2022-10-19T02:16:38.316Z,13.12
2022-10-19T02:17:47.534Z,13.00
2022-10-19T02:18:53.496Z,13.05
2022-10-19T02:19:57.419Z,13.08
2022-10-19T02:21:04.890Z,13.09
2022-10-19T02:22:08.693Z,13.26
2022-10-19T02:23:13.453Z,13.12
2022-10-19T02:24:16.211Z,13.22
2022-10-19T02:25:19.573Z,13.11
2022-10-19T02:26:22.773Z,13.13
2022-10-19T02:27:26.004Z,13.07
2022-10-19T02:28:31.261Z,13.06
2022-10-19T02:29:36.250Z,13.08
2022-10-19T02:30:39.212Z,13.09
2022-10-19T02:31:42.538Z,13.04
2022-10-19T02:32:45.381Z,13.17
2022-10-19T02:33:48.345Z,13.10
2022-10-19T02:34:51.260Z,13.03
2022-10-19T02:35:54.314Z,13.01
2022-10-19T02:36:57.931Z,12.96
2022-10-19T02:38:02.571Z,13.10
2022-10-19T02:39:07.902Z,13.02
2022-10-19T02:40:11.817Z,13.11
2022-10-19T02:41:22.377Z,13.05
2022-10-19T02:42:35.901Z,12.90
2022-10-19T02:43:41.330Z,12.68
2022-10-19T02:44:58.372Z,12.57
2022-10-19T02:46:06.451Z,12.69
2022-10-19T02:47:22.661Z,12.66
2022-10-19T02:48:30.732Z,12.60
2022-10-19T02:49:36.373Z,12.60
2022-10-19T02:50:44.505Z,12.56
2022-10-19T02:52:06.535Z,12.64
2022-10-19T02:53:09.418Z,12.82
2022-10-19T02:54:12.415Z,12.77
2022-10-19T02:55:15.270Z,12.81
2022-10-19T02:56:18.255Z,12.91
2022-10-19T02:57:24.320Z,12.79
2022-10-19T02:58:27.226Z,12.62
2022-10-19T02:59:30.373Z,12.66
2022-10-19T03:00:33.824Z,12.52
2022-10-19T03:01:36.659Z,12.50
2022-10-19T03:02:39.494Z,12.42
2022-10-19T03:03:42.180Z,12.54
2022-10-19T03:04:48.828Z,12.63
2022-10-19T03:05:55.704Z,12.62
2022-10-19T03:06:58.662Z,12.65
2022-10-19T03:08:01.895Z,12.62
2022-10-19T03:09:04.895Z,12.56
2022-10-19T03:10:08.060Z,12.44
2022-10-19T03:11:11.305Z,12.52
2022-10-19T03:12:14.658Z,12.60
2022-10-19T03:13:17.475Z,12.62
2022-10-19T03:14:20.278Z,12.69
2022-10-19T03:15:25.052Z,12.70
2022-10-19T03:16:28.016Z,12.80
2022-10-19T03:17:31.182Z,12.62
2022-10-19T03:18:36.629Z,12.56
2022-10-19T03:19:39.706Z,12.50
2022-10-19T03:20:42.535Z,12.46
2022-10-19T03:21:45.651Z,12.46
2022-10-19T03:22:48.515Z,12.44
2022-10-19T03:23:51.806Z,12.43
2022-10-19T03:24:58.214Z,12.56
2022-10-19T03:26:01.273Z,12.67
2022-10-19T03:27:04.251Z,12.69
2022-10-19T03:28:07.117Z,12.64
2022-10-19T03:29:09.920Z,12.61
2022-10-19T03:30:12.927Z,12.82
2022-10-19T03:31:15.682Z,12.83
2022-10-19T03:32:18.565Z,12.80
2022-10-19T03:33:21.506Z,12.78
2022-10-19T03:34:24.390Z,12.71
2022-10-19T03:35:27.742Z,12.74
2022-10-19T03:36:36.052Z,12.66
2022-10-19T03:37:38.887Z,12.60
2022-10-19T03:38:42.879Z,12.66
2022-10-19T03:39:45.748Z,12.52
2022-10-19T03:40:48.576Z,12.60
2022-10-19T03:41:51.435Z,12.52
2022-10-19T03:42:54.135Z,12.32
2022-10-19T03:43:57.858Z,12.29
2022-10-19T03:45:00.703Z,12.34
2022-10-19T03:46:03.854Z,12.22
2022-10-19T03:47:06.620Z,12.27
2022-10-19T03:48:10.700Z,12.33
2022-10-19T03:49:14.026Z,12.17
2022-10-19T03:50:17.495Z,12.25
2022-10-19T03:51:25.379Z,12.20
2022-10-19T03:52:28.173Z,12.20
2022-10-19T03:53:33.164Z,12.15
2022-10-19T03:54:36.291Z,12.12
2022-10-19T03:56:42.636Z,12.15
2022-10-19T03:57:45.384Z,12.13
2022-10-19T03:58:50.173Z,12.12
2022-10-19T03:59:53.076Z,12.04
2022-10-19T04:00:55.889Z,12.16
2022-10-19T04:01:58.663Z,12.10
2022-10-19T04:03:01.580Z,12.00
2022-10-19T04:04:11.011Z,11.93
2022-10-19T04:05:14.006Z,11.88
2022-10-19T04:06:21.294Z,11.92
2022-10-19T04:07:25.103Z,11.94
2022-10-19T04:08:30.718Z,11.90
2022-10-19T04:09:33.859Z,11.86
2022-10-19T04:10:36.642Z,11.83
2022-10-19T04:11:40.146Z,11.78
2022-10-19T04:12:42.869Z,11.77
2022-10-19T04:13:53.302Z,11.64
2022-10-19T04:14:57.574Z,11.71
2022-10-19T04:16:01.280Z,11.59
2022-10-19T04:17:04.583Z,11.63
2022-10-19T04:18:07.517Z,11.63
2022-10-19T04:19:15.267Z,11.61
2022-10-19T04:20:21.371Z,11.63
2022-10-19T04:21:26.748Z,11.69
2022-10-19T04:22:29.526Z,11.69
2022-10-19T04:23:35.287Z,11.72
2022-10-19T04:24:37.998Z,11.74
2022-10-19T04:25:40.929Z,11.55
2022-10-19T04:26:49.725Z,11.56
2022-10-19T04:27:56.267Z,11.69
2022-10-19T04:29:01.504Z,11.73
2022-10-19T04:30:05.306Z,11.84
2022-10-19T04:31:08.613Z,11.88
2022-10-19T04:32:11.631Z,11.76
2022-10-19T04:33:14.525Z,11.67
2022-10-19T04:34:17.840Z,11.53
2022-10-19T04:35:20.632Z,11.53
2022-10-19T04:36:28.738Z,11.52
2022-10-19T04:37:31.853Z,11.50
2022-10-19T04:38:37.412Z,11.86
2022-10-19T04:39:41.447Z,11.89
2022-10-19T04:40:44.167Z,11.74
2022-10-19T04:41:47.012Z,11.67
2022-10-19T04:42:49.850Z,11.75
2022-10-19T04:43:58.472Z,11.78
2022-10-19T04:45:01.248Z,11.72
2022-10-19T04:46:15.429Z,11.59
2022-10-19T04:47:18.198Z,11.60
2022-10-19T04:48:23.054Z,11.68
2022-10-19T04:49:27.414Z,11.58
2022-10-19T04:50:30.168Z,11.55
2022-10-19T04:51:34.438Z,11.38
2022-10-19T04:52:37.178Z,11.29
2022-10-19T04:53:44.423Z,11.37
2022-10-19T04:54:47.407Z,11.55
2022-10-19T04:55:50.138Z,11.54
2022-10-19T04:56:54.102Z,11.44
2022-10-19T04:57:56.937Z,11.41
2022-10-19T04:59:01.320Z,11.41
2022-10-19T05:00:05.021Z,11.15
2022-10-19T05:01:17.253Z,11.19
2022-10-19T05:02:20.341Z,11.28
2022-10-19T05:03:23.056Z,11.24
2022-10-19T05:04:25.789Z,11.11
2022-10-19T05:05:28.514Z,11.16
2022-10-19T05:06:32.252Z,11.02
2022-10-19T05:07:35.392Z,10.98
2022-10-19T05:08:39.798Z,10.92
2022-10-19T05:09:42.645Z,10.92
2022-10-19T05:10:47.623Z,10.90
2022-10-19T05:11:51.464Z,11.02
2022-10-19T05:12:54.747Z,10.99
2022-10-19T05:13:57.696Z,11.01
2022-10-19T05:15:00.463Z,10.96
2022-10-19T05:16:06.739Z,10.86
2022-10-19T05:17:09.553Z,10.90
2022-10-19T05:18:14.760Z,10.97
2022-10-19T05:19:18.568Z,11.01
2022-10-19T05:20:21.643Z,11.01
2022-10-19T05:21:24.903Z,11.02
2022-10-19T05:22:27.913Z,11.04
2022-10-19T05:24:38.586Z,11.16
2022-10-19T05:25:41.403Z,11.20
2022-10-19T05:26:44.906Z,11.26
2022-10-19T05:27:52.469Z,11.22
2022-10-19T05:29:04.737Z,11.21
2022-10-19T05:30:08.861Z,11.22
2022-10-19T05:31:19.055Z,11.23
2022-10-19T05:32:21.906Z,11.37
2022-10-19T05:33:24.751Z,11.28
2022-10-19T05:34:27.510Z,11.30
2022-10-19T05:35:30.339Z,11.33
2022-10-19T05:36:39.560Z,11.36
2022-10-19T05:37:42.393Z,11.43
2022-10-19T05:38:48.277Z,11.41
2022-10-19T05:39:51.116Z,11.51
2022-10-19T05:40:53.944Z,11.44
2022-10-19T05:41:56.837Z,11.58
2022-10-19T05:42:59.743Z,11.51
2022-10-19T05:44:04.173Z,11.52
2022-10-19T05:45:07.537Z,11.49
2022-10-19T05:46:13.668Z,11.59
2022-10-19T05:47:16.881Z,11.56
2022-10-19T05:48:20.541Z,11.44
2022-10-19T05:49:23.638Z,11.46
2022-10-19T05:50:26.563Z,11.50
2022-10-19T05:51:29.694Z,11.44
2022-10-19T05:52:32.444Z,11.45
2022-10-19T05:53:35.903Z,11.51
2022-10-19T05:54:38.793Z,11.54
2022-10-19T05:55:41.557Z,11.53
2022-10-19T05:56:45.150Z,11.48
2022-10-19T05:57:47.959Z,11.43
2022-10-19T05:58:53.514Z,11.39
2022-10-19T05:59:58.610Z,11.42
2022-10-19T06:01:02.507Z,11.37
2022-10-19T06:02:05.440Z,11.38
2022-10-19T06:03:08.407Z,11.42
2022-10-19T06:04:14.194Z,11.45
2022-10-19T06:05:17.174Z,11.45
2022-10-19T06:06:20.429Z,11.50
2022-10-19T06:07:23.478Z,11.56
2022-10-19T06:08:27.221Z,11.56
2022-10-19T06:09:36.033Z,11.56
2022-10-19T06:10:38.941Z,11.49
2022-10-19T06:11:42.810Z,11.37
2022-10-19T06:12:45.607Z,11.41
2022-10-19T06:13:50.830Z,11.43
2022-10-19T06:14:53.535Z,11.46
2022-10-19T06:15:56.295Z,11.48
2022-10-19T06:16:59.289Z,11.47
2022-10-19T06:18:04.395Z,11.48
2022-10-19T06:19:08.389Z,11.45
2022-10-19T06:20:11.638Z,11.52
2022-10-19T06:21:20.212Z,11.54
2022-10-19T06:22:23.011Z,11.53
2022-10-19T06:23:25.860Z,11.56
2022-10-19T06:24:28.698Z,11.66
2022-10-19T06:25:32.509Z,11.68
2022-10-19T06:26:36.052Z,11.78
2022-10-19T06:27:39.313Z,11.78
2022-10-19T06:28:43.790Z,11.76
2022-10-19T06:29:46.753Z,11.74
2022-10-19T06:30:49.879Z,11.85
2022-10-19T06:31:54.464Z,11.85
2022-10-19T06:32:59.361Z,11.86
2022-10-19T06:34:02.405Z,11.91
2022-10-19T06:35:05.651Z,12.01
2022-10-19T06:36:18.950Z,11.97
2022-10-19T06:37:21.572Z,12.03
2022-10-19T06:38:25.423Z,12.05
2022-10-19T06:39:28.173Z,12.14
2022-10-19T06:40:34.556Z,12.18
2022-10-19T06:41:38.357Z,12.30
2022-10-19T06:42:41.178Z,12.32
2022-10-19T06:43:44.311Z,12.40
2022-10-19T06:44:47.090Z,12.41
2022-10-19T06:45:49.783Z,12.44
2022-10-19T06:46:52.986Z,12.53
2022-10-19T06:47:55.809Z,12.64
2022-10-19T06:49:01.611Z,12.74
2022-10-19T06:50:09.468Z,12.80
2022-10-19T06:51:13.850Z,12.88
2022-10-19T06:52:16.573Z,12.96
2022-10-19T06:53:19.466Z,12.98
2022-10-19T06:54:22.310Z,13.03
2022-10-19T06:55:25.849Z,13.13
2022-10-19T06:56:28.786Z,13.21
2022-10-19T06:57:35.877Z,13.24
2022-10-19T06:58:41.065Z,13.40
2022-10-19T06:59:43.852Z,13.58
2022-10-19T07:00:47.906Z,13.65
2022-10-19T07:01:50.763Z,13.67
2022-10-19T07:02:53.632Z,13.69
2022-10-19T07:03:56.633Z,13.75
2022-10-19T07:05:03.239Z,13.80
2022-10-19T07:06:12.891Z,14.03
2022-10-19T07:07:15.725Z,14.20
2022-10-19T07:08:26.914Z,14.27
2022-10-19T07:09:30.017Z,14.41
2022-10-19T07:10:32.837Z,14.53
2022-10-19T07:11:35.664Z,14.57
2022-10-19T07:12:38.577Z,14.77
2022-10-19T07:13:41.296Z,14.73
2022-10-19T07:14:44.073Z,14.72
2022-10-19T07:15:47.483Z,14.67
2022-10-19T07:16:50.974Z,14.73
2022-10-19T07:17:53.849Z,14.86
2022-10-19T07:18:56.652Z,15.04
2022-10-19T07:19:59.401Z,15.02
2022-10-19T07:21:04.372Z,15.05
2022-10-19T07:22:07.111Z,15.22
2022-10-19T07:23:10.015Z,15.41
2022-10-19T07:24:12.707Z,15.45
2022-10-19T07:25:15.567Z,15.48
2022-10-19T07:26:26.790Z,15.59
2022-10-19T07:27:31.870Z,15.48
2022-10-19T07:28:41.457Z,15.42
2022-10-19T07:29:44.367Z,15.72
2022-10-19T07:30:47.255Z,15.76
2022-10-19T07:31:50.319Z,15.71
2022-10-19T07:32:53.158Z,15.76
2022-10-19T07:33:58.111Z,15.84
2022-10-19T07:35:00.862Z,15.79
2022-10-19T07:36:07.362Z,15.93
2022-10-19T07:37:10.215Z,15.86
2022-10-19T07:38:13.302Z,15.78
2022-10-19T07:39:19.497Z,15.91
2022-10-19T07:40:22.792Z,15.95
2022-10-19T07:41:26.936Z,16.11
2022-10-19T07:42:33.067Z,16.31
2022-10-19T07:43:36.491Z,16.30
2022-10-19T07:44:39.471Z,16.35
2022-10-19T07:45:42.281Z,16.47
2022-10-19T07:46:45.655Z,16.40
2022-10-19T07:47:48.446Z,16.61
2022-10-19T07:48:52.346Z,16.56
2022-10-19T07:49:55.267Z,16.69
2022-10-19T07:50:58.351Z,16.95
2022-10-19T07:52:01.032Z,17.15
2022-10-19T07:53:05.515Z,17.14
2022-10-19T07:54:08.504Z,17.32
2022-10-19T07:55:11.425Z,17.42
2022-10-19T07:56:23.577Z,17.71
2022-10-19T07:57:27.309Z,17.72
2022-10-19T07:58:30.199Z,17.83
2022-10-19T07:59:34.666Z,17.99
2022-10-19T08:00:37.617Z,18.20
2022-10-19T08:01:41.897Z,18.29
2022-10-19T08:03:00.034Z,18.24
2022-10-19T08:05:33.426Z,18.46
2022-10-19T08:06:37.724Z,18.70
2022-10-19T08:07:40.536Z,18.64
2022-10-19T08:08:49.145Z,18.90
2022-10-19T08:09:53.818Z,18.71
2022-10-19T08:10:57.575Z,19.06
2022-10-19T08:12:00.584Z,19.00
2022-10-19T08:13:03.323Z,19.00
2022-10-19T08:14:06.208Z,18.86
2022-10-19T08:15:09.348Z,19.06
2022-10-19T08:16:33.086Z,19.53
2022-10-19T08:17:37.183Z,19.54
2022-10-19T08:18:45.905Z,19.60
2022-10-19T08:19:48.712Z,19.94
2022-10-19T08:20:51.425Z,20.18
2022-10-19T08:21:54.349Z,20.41
2022-10-19T08:23:07.407Z,20.64
2022-10-19T08:24:15.520Z,20.95
2022-10-19T08:25:18.408Z,20.82
2022-10-19T08:26:21.689Z,21.17
2022-10-19T08:27:24.548Z,21.01
2022-10-19T08:28:29.137Z,21.15
2022-10-19T08:29:32.127Z,21.07
2022-10-19T08:30:36.214Z,20.91
2022-10-19T08:31:39.340Z,20.95
2022-10-19T08:32:42.140Z,21.25
2022-10-19T08:33:45.346Z,21.57
2022-10-19T08:34:48.170Z,21.53
2022-10-19T08:35:51.121Z,21.91
2022-10-19T08:36:53.874Z,21.89
2022-10-19T08:37:58.656Z,21.73
2022-10-19T08:39:07.716Z,21.71
2022-10-19T08:40:26.019Z,21.88
2022-10-19T08:41:41.200Z,22.24
2022-10-19T08:42:54.675Z,22.55
2022-10-19T08:44:22.364Z,22.48
2022-10-19T08:45:44.880Z,22.15
2022-10-19T08:46:50.658Z,21.69
2022-10-19T08:48:06.011Z,21.95
2022-10-19T08:49:16.316Z,22.04
2022-10-19T08:50:24.297Z,21.88
2022-10-19T08:51:28.970Z,22.15
2022-10-19T08:52:35.881Z,22.34
2022-10-19T08:53:58.605Z,22.68
2022-10-19T08:55:14.015Z,22.61
2022-10-19T08:57:05.794Z,22.20
2022-10-19T08:58:46.320Z,22.12
2022-10-19T09:00:10.203Z,22.24
2022-10-19T09:01:28.420Z,22.78
2022-10-19T09:02:49.362Z,22.75
2022-10-19T09:04:02.480Z,22.65
2022-10-19T09:05:28.878Z,22.91
2022-10-19T09:06:57.393Z,23.08
2022-10-19T09:08:01.168Z,23.22
2022-10-19T09:09:06.461Z,23.20
2022-10-19T09:10:16.034Z,23.50
2022-10-19T09:11:26.118Z,23.60
2022-10-19T09:12:41.497Z,23.01
2022-10-19T09:14:04.359Z,22.61
2022-10-19T09:15:14.349Z,23.20
2022-10-19T09:16:19.965Z,23.49
2022-10-19T09:17:22.813Z,23.64
2022-10-19T09:18:30.299Z,24.13
2022-10-19T09:19:33.156Z,24.14
2022-10-19T09:20:40.664Z,24.32
2022-10-19T09:21:56.197Z,23.96
2022-10-19T09:23:21.015Z,23.44
2022-10-19T09:24:39.194Z,24.02
2022-10-19T09:25:42.072Z,24.16
2022-10-19T09:26:53.720Z,23.98
2022-10-19T09:28:36.669Z,24.19
2022-10-19T09:29:48.344Z,24.11
2022-10-19T09:30:56.920Z,24.19
2022-10-19T09:32:04.029Z,24.47
2022-10-19T09:33:16.380Z,24.40
2022-10-19T09:34:46.619Z,23.97
2022-10-19T09:35:50.632Z,24.26
2022-10-19T09:36:59.107Z,24.70
2022-10-19T09:38:02.513Z,24.80
2022-10-19T09:39:05.755Z,25.45
2022-10-19T09:40:17.362Z,24.85
2022-10-19T09:41:22.869Z,23.88
2022-10-19T09:42:30.636Z,23.87
2022-10-19T09:43:34.375Z,24.13
2022-10-19T09:44:37.098Z,23.36
2022-10-19T09:46:01.093Z,22.68
2022-10-19T09:47:31.235Z,22.54
2022-10-19T09:48:55.623Z,22.34
2022-10-19T09:50:24.647Z,22.77
2022-10-19T09:51:40.714Z,23.70
2022-10-19T09:52:46.145Z,24.13
2022-10-19T09:53:54.774Z,24.40
2022-10-19T09:55:04.593Z,24.90
2022-10-19T09:56:12.439Z,24.48
2022-10-19T09:57:22.168Z,24.47
2022-10-19T09:58:33.040Z,24.73
2022-10-19T09:59:36.979Z,25.38
2022-10-19T10:00:48.385Z,25.19
2022-10-19T10:02:07.665Z,25.22
2022-10-19T10:03:29.690Z,25.21
2022-10-19T10:04:32.616Z,25.06
2022-10-19T10:05:41.368Z,25.38
2022-10-19T10:06:46.933Z,25.15
2022-10-19T10:07:55.457Z,25.42
2022-10-19T10:08:59.284Z,25.44
2022-10-19T10:10:08.877Z,24.79
2022-10-19T10:11:14.836Z,23.91
2022-10-19T10:12:17.695Z,23.89
2022-10-19T10:13:25.081Z,24.13
2022-10-19T10:14:40.546Z,23.98
2022-10-19T10:15:48.482Z,23.96
2022-10-19T10:17:27.817Z,23.84
2022-10-19T10:18:38.523Z,24.78
2022-10-19T10:19:59.679Z,24.82
2022-10-19T10:21:12.441Z,24.09
2022-10-19T10:22:27.989Z,23.96
2022-10-19T10:23:36.589Z,24.13
2022-10-19T10:24:52.232Z,24.94
2022-10-19T10:25:57.497Z,24.41
2022-10-19T10:27:03.278Z,24.39
2022-10-19T10:28:23.740Z,24.12
2022-10-19T10:29:28.877Z,24.60
2022-10-19T10:30:36.808Z,25.08
2022-10-19T10:31:42.676Z,24.65
2022-10-19T10:32:51.857Z,24.76
2022-10-19T10:34:10.971Z,25.33
2022-10-19T10:35:37.495Z,25.01
2022-10-19T10:36:40.592Z,25.35
2022-10-19T10:37:46.368Z,24.43
2022-10-19T10:39:07.548Z,24.87
2022-10-19T10:40:30.262Z,25.01
2022-10-19T10:41:40.261Z,24.95
2022-10-19T10:42:46.016Z,24.97
2022-10-19T10:44:07.124Z,24.80
2022-10-19T10:45:20.800Z,25.19
2022-10-19T10:46:29.881Z,24.66
2022-10-19T10:47:33.178Z,25.12
2022-10-19T10:48:43.228Z,25.16
2022-10-19T10:49:57.314Z,25.56
2022-10-19T10:51:01.692Z,25.73
2022-10-19T10:52:16.401Z,25.37
2022-10-19T10:53:40.405Z,25.14
2022-10-19T10:54:59.525Z,25.19
2022-10-19T10:56:04.522Z,25.18
2022-10-19T10:57:18.764Z,25.76
2022-10-19T10:58:48.212Z,25.99
2022-10-19T10:59:53.602Z,26.61
2022-10-19T11:00:57.430Z,26.57
2022-10-19T11:02:10.691Z,26.78
2022-10-19T11:03:20.610Z,26.51
2022-10-19T11:04:30.241Z,26.21
2022-10-19T11:05:41.142Z,25.43
2022-10-19T11:06:55.274Z,24.93
2022-10-19T11:08:19.102Z,25.91
2022-10-19T11:09:39.602Z,25.60
2022-10-19T11:10:59.303Z,26.11
2022-10-19T11:12:05.846Z,26.12
2022-10-19T11:13:50.147Z,25.85
2022-10-19T11:15:20.057Z,25.27
2022-10-19T11:16:34.028Z,25.71
2022-10-19T11:17:40.335Z,24.79
2022-10-19T11:18:55.280Z,24.92
2022-10-19T11:19:58.925Z,25.09
2022-10-19T11:21:34.574Z,25.28
2022-10-19T11:23:00.410Z,25.62
2022-10-19T11:24:35.838Z,25.68
2022-10-19T11:25:44.616Z,25.71
2022-10-19T11:27:16.611Z,25.45
2022-10-19T11:28:44.124Z,25.41
2022-10-19T11:30:18.836Z,24.23
2022-10-19T11:31:37.421Z,25.09
2022-10-19T11:32:50.234Z,24.94
2022-10-19T11:34:11.073Z,25.21
2022-10-19T11:35:44.893Z,24.69
2022-10-19T11:37:06.008Z,24.75
2022-10-19T11:38:25.122Z,24.28
2022-10-19T11:39:36.917Z,25.08
2022-10-19T11:41:19.521Z,24.81
2022-10-19T11:44:29.992Z,23.97
2022-10-19T11:45:35.448Z,23.91
2022-10-19T11:46:56.429Z,24.33
2022-10-19T11:48:20.631Z,24.28
2022-10-19T11:49:45.435Z,24.57
2022-10-19T11:51:17.279Z,25.31
2022-10-19T11:52:46.603Z,24.73
2022-10-19T11:54:10.017Z,25.26
2022-10-19T11:55:38.325Z,25.24
2022-10-19T11:57:02.179Z,25.69
2022-10-19T11:58:35.265Z,25.31
2022-10-19T12:00:08.172Z,25.58
2022-10-19T12:01:59.531Z,24.93
2022-10-19T12:03:23.588Z,25.82
2022-10-19T12:04:51.149Z,25.25
2022-10-19T12:06:08.418Z,25.24
2022-10-19T12:07:23.076Z,25.80
2022-10-19T12:08:37.679Z,25.47
2022-10-19T12:09:53.474Z,25.74
2022-10-19T12:11:23.688Z,25.36
2022-10-19T12:12:32.502Z,25.18
2022-10-19T12:13:49.430Z,24.79
2022-10-19T12:15:01.597Z,24.66
2022-10-19T12:16:06.010Z,24.58
2022-10-19T12:17:20.398Z,24.29
2022-10-19T12:18:49.229Z,24.30
2022-10-19T12:19:56.776Z,24.35
2022-10-19T12:21:03.494Z,24.23
2022-10-19T12:22:13.976Z,24.31
2022-10-19T12:23:26.424Z,23.81
2022-10-19T12:24:30.962Z,24.13
2022-10-19T12:25:36.260Z,23.98
2022-10-19T12:26:41.636Z,23.71
2022-10-19T12:27:50.310Z,23.86
2022-10-19T12:29:01.128Z,24.30
2022-10-19T12:30:30.346Z,24.36
2022-10-19T12:31:35.787Z,24.32
2022-10-19T12:32:54.252Z,24.26
2022-10-19T12:34:09.594Z,24.09
2022-10-19T12:35:31.452Z,23.66
2022-10-19T12:36:47.105Z,24.10
2022-10-19T12:38:04.137Z,24.27
2022-10-19T12:39:21.090Z,23.91
2022-10-19T12:40:45.198Z,23.92
2022-10-19T12:41:52.798Z,24.18
2022-10-19T12:43:24.458Z,23.67
2022-10-19T12:44:36.458Z,23.23
2022-10-19T12:45:52.508Z,23.43
2022-10-19T12:47:10.569Z,23.62
2022-10-19T12:48:14.559Z,23.69
2022-10-19T12:49:26.906Z,23.37
2022-10-19T12:50:54.286Z,22.87
2022-10-19T12:52:01.963Z,23.07
2022-10-19T12:53:05.579Z,22.92
2022-10-19T12:54:09.911Z,23.09
2022-10-19T12:55:15.634Z,23.07
2022-10-19T12:56:20.512Z,23.30
2022-10-19T12:57:30.511Z,23.05
2022-10-19T12:58:47.463Z,23.15
2022-10-19T13:00:24.814Z,23.19
2022-10-19T13:01:33.477Z,23.10
2022-10-19T13:02:39.411Z,22.89
2022-10-19T13:03:45.306Z,22.54
2022-10-19T13:04:54.377Z,22.66
2022-10-19T13:06:16.434Z,23.13
2022-10-19T13:07:19.623Z,23.18
2022-10-19T13:08:32.846Z,22.84
2022-10-19T13:09:39.742Z,22.82
2022-10-19T13:11:06.448Z,22.44
2022-10-19T13:12:16.182Z,22.24
2022-10-19T13:13:52.481Z,22.07
2022-10-19T13:14:58.721Z,22.11
2022-10-19T13:16:02.777Z,22.29
2022-10-19T13:17:05.626Z,22.54
2022-10-19T13:18:44.654Z,22.48
2022-10-19T13:19:47.539Z,21.97
2022-10-19T13:20:53.413Z,21.70
2022-10-19T13:22:02.456Z,21.87
2022-10-19T13:23:05.170Z,21.78
2022-10-19T13:24:26.130Z,21.51
2022-10-19T13:25:39.499Z,21.91
2022-10-19T13:26:42.358Z,21.91
2022-10-19T13:27:46.965Z,21.74
2022-10-19T13:28:55.818Z,21.76
2022-10-19T13:29:58.725Z,21.73
2022-10-19T13:31:07.137Z,21.79
2022-10-19T13:32:45.517Z,21.72
2022-10-19T13:33:50.302Z,21.15
2022-10-19T13:34:53.574Z,20.87
2022-10-19T13:35:59.137Z,20.77
2022-10-19T13:37:04.009Z,20.57
2022-10-19T13:38:10.827Z,20.94
2022-10-19T13:39:15.960Z,21.18
2022-10-19T13:40:24.515Z,21.16
2022-10-19T13:41:37.001Z,20.92
2022-10-19T13:42:40.357Z,21.37
2022-10-19T13:44:02.150Z,21.43
2022-10-19T13:45:05.448Z,21.65
2022-10-19T13:46:08.112Z,21.64
2022-10-19T13:49:19.676Z,20.87
2022-10-19T13:50:47.114Z,20.25
2022-10-19T13:52:07.673Z,20.64
2022-10-19T13:53:39.065Z,20.72
2022-10-19T13:55:12.967Z,20.59
2022-10-19T13:56:49.659Z,20.26
2022-10-19T13:58:02.875Z,20.09
2022-10-19T14:00:04.539Z,20.15
2022-10-19T14:01:07.565Z,19.85
2022-10-19T14:02:55.335Z,19.85
2022-10-19T14:04:12.750Z,19.85
2022-10-19T14:05:42.849Z,19.57
2022-10-19T14:07:02.036Z,19.99
2022-10-19T14:08:19.995Z,20.14
2022-10-19T14:09:48.329Z,19.96
2022-10-19T14:11:14.178Z,19.63
2022-10-19T14:12:16.871Z,19.88
2022-10-19T14:13:22.543Z,19.66
2022-10-19T14:14:25.605Z,19.45
2022-10-19T14:15:31.348Z,19.19
2022-10-19T14:16:34.684Z,19.22
2022-10-19T14:17:42.709Z,19.35
2022-10-19T14:18:55.943Z,19.27
2022-10-19T14:20:00.267Z,19.28
2022-10-19T14:21:06.933Z,19.29
2022-10-19T14:22:26.827Z,19.34
2022-10-19T14:23:33.575Z,19.14
2022-10-19T14:24:37.123Z,18.91
2022-10-19T14:25:39.896Z,18.80
2022-10-19T14:26:42.768Z,18.88
2022-10-19T14:27:54.483Z,18.81
2022-10-19T14:28:59.974Z,18.85
2022-10-19T14:30:04.165Z,18.84
2022-10-19T14:31:17.448Z,18.81
2022-10-19T14:32:28.983Z,18.67
2022-10-19T14:33:39.435Z,18.53
2022-10-19T14:34:44.647Z,18.35
2022-10-19T14:35:50.947Z,18.45
2022-10-19T14:36:53.926Z,18.40
2022-10-19T14:37:57.505Z,18.28
2022-10-19T14:39:01.006Z,18.39
2022-10-19T14:40:26.527Z,18.31
2022-10-19T14:44:00.169Z,17.95
2022-10-19T14:45:03.754Z,17.76
2022-10-19T14:46:06.599Z,17.53
2022-10-19T14:47:21.347Z,17.64
2022-10-19T14:48:24.602Z,17.52
2022-10-19T14:49:27.474Z,17.66
2022-10-19T14:50:32.944Z,17.62
2022-10-19T14:51:38.839Z,17.47
2022-10-19T14:52:41.964Z,17.25
2022-10-19T14:53:56.667Z,17.47
2022-10-19T14:55:05.319Z,17.52
2022-10-19T14:56:11.857Z,17.44
2022-10-19T14:57:24.987Z,17.05
2022-10-19T14:58:44.274Z,17.16